createdAt,value
2022-09-28T00:01:18.081Z,16.464401030904355
2022-09-28T00:04:16.995Z,16.38346863874913
2022-09-28T00:07:16.455Z,16.409161453833896
2022-09-28T00:11:17.772Z,16.373191514752488
2022-09-28T00:14:16.359Z,16.39567272500717
2022-09-28T00:17:17.340Z,16.387322560548
2022-09-28T00:21:18.768Z,16.363556712062927
2022-09-28T00:24:17.331Z,16.31474039416098
2022-09-28T00:27:18.215Z,16.27748585343361
2022-09-28T00:31:17.165Z,16.219677113625586
2022-09-28T00:34:16.993Z,16.228669581843132
2022-09-28T00:37:19.984Z,16.18306493079881
2022-09-28T00:41:16.427Z,16.20040754187503
2022-09-28T00:44:50.497Z,16.18306493079881
2022-09-28T00:47:37.575Z,16.154802905037013
2022-09-28T00:51:16.954Z,16.129110161984226
2022-09-28T00:54:16.964Z,16.060382110081626
2022-09-28T00:57:18.006Z,16.05845515610572
2022-09-28T01:01:17.186Z,16.092498015705495
2022-09-28T01:04:17.180Z,16.01156595530665
2022-09-28T01:07:18.799Z,16.01670449667763
2022-09-28T01:11:17.104Z,15.952472750458764
2022-09-28T01:14:17.640Z,15.92485311356586
2022-09-28T01:17:23.372Z,15.866402281820774
2022-09-28T01:21:19.655Z,15.834928772632793
2022-09-28T01:24:38.844Z,15.796389796660605
2022-09-28T01:27:24.848Z,15.752069994531121
2022-09-28T01:31:19.461Z,15.734727469156587
2022-09-28T01:34:23.143Z,15.725735049897139
2022-09-28T01:37:20.728Z,15.708392529556658
2022-09-28T01:41:20.228Z,15.683342228250785
2022-09-28T01:44:19.072Z,15.649299522178262
2022-09-28T01:47:21.210Z,15.630030071572401
2022-09-28T01:51:23.196Z,15.620395347804243
2022-09-28T01:54:20.948Z,15.558090825472027
2022-09-28T01:57:21.152Z,15.530471308641518
2022-09-28T02:01:20.418Z,15.502209486169978
2022-09-28T02:04:20.851Z,15.441189672222027
2022-09-28T02:07:20.672Z,15.43797810420374
2022-09-28T02:11:20.071Z,15.434124222731862
2022-09-28T02:14:17.890Z,15.408431683769686
2022-09-28T02:17:16.696Z,15.375031393996414
2022-09-28T02:21:22.586Z,15.348696558806477
2022-09-28T02:24:26.367Z,15.329427172047144
2022-09-28T02:27:25.104Z,15.342915742348941
2022-09-28T02:31:16.267Z,15.31979248020225
2022-09-28T02:34:16.895Z,15.244641918927664
2022-09-28T02:37:16.546Z,15.251707353661278
2022-09-28T02:41:30.241Z,15.178483784029321
2022-09-28T02:44:46.268Z,15.198395450622774
2022-09-28T02:47:28.222Z,15.175914537045264
2022-09-28T02:51:26.134Z,15.22023405771797
2022-09-28T02:54:32.395Z,15.158572121805992
2022-09-28T02:57:29.849Z,15.134164283752034
2022-09-28T03:01:25.331Z,15.17270297841751
2022-09-28T03:04:27.811Z,15.103975651032034
2022-09-28T03:07:23.634Z,15.09498329429125
2022-09-28T03:11:21.038Z,15.084706316250323
2022-09-28T03:14:17.147Z,15.092414049671879
2022-09-28T03:17:19.461Z,15.048736902274777
2022-09-28T03:21:16.421Z,15.026898336461546
2022-09-28T03:24:16.742Z,15.018548297981033
2022-09-28T03:27:16.916Z,14.972301944927313
2022-09-28T03:31:16.499Z,14.982578910235315
2022-09-28T03:34:16.774Z,14.936974885559994
2022-09-28T03:37:16.784Z,14.922201755721835
2022-09-28T03:41:16.073Z,14.922201755721835
2022-09-28T03:44:16.524Z,14.882378548140696
2022-09-28T03:47:18.410Z,14.91899020607534
2022-09-28T03:51:16.006Z,14.931194095336831
2022-09-28T03:54:16.291Z,14.9594557399294
2022-09-28T03:57:16.294Z,14.938901815716235
2022-09-28T04:01:17.720Z,14.87338621336421
2022-09-28T04:04:16.900Z,14.843839976802702
2022-09-28T04:07:16.396Z,14.858613093880649
2022-09-28T04:11:15.894Z,14.896509361733115
2022-09-28T04:14:16.274Z,14.853474618102428
2022-09-28T04:17:16.211Z,14.85989771287068
2022-09-28T04:21:18.288Z,14.863109260425336
2022-09-28T04:24:17.417Z,14.838701501861214
2022-09-28T04:31:18.232Z,14.795024476609251
2022-09-28T04:34:20.075Z,14.757128251148334
2022-09-28T04:37:16.294Z,14.726939743888579
2022-09-28T04:41:16.023Z,14.743639767939749
2022-09-28T04:44:16.330Z,14.712808956707885
2022-09-28T04:47:16.442Z,14.707028180768338
2022-09-28T04:51:16.648Z,14.693539705008515
2022-09-28T04:54:17.236Z,14.667847375775818
2022-09-28T04:57:16.995Z,14.661424294604512
2022-09-28T05:01:18.861Z,14.639585822023582
2022-09-28T05:11:16.527Z,14.63637428238153
2022-09-28T05:14:16.908Z,14.587558893819459
2022-09-28T05:17:16.642Z,14.599762738497521
2022-09-28T05:21:19.768Z,14.646008901648747
2022-09-28T05:24:17.073Z,14.61838966248697
2022-09-28T05:27:17.291Z,14.570858898499228
2022-09-28T05:31:16.849Z,14.61710504691664
2022-09-28T05:34:16.974Z,14.626739664137494
2022-09-28T05:37:16.962Z,14.619031970278957
2022-09-28T05:41:16.590Z,14.659497370341796
2022-09-28T05:44:17.430Z,14.665278143252726
2022-09-28T05:47:16.985Z,14.737858990035694
2022-09-28T05:51:16.871Z,14.807228349195157
2022-09-28T05:54:17.253Z,14.853474618102428
2022-09-28T05:57:17.132Z,14.854116927558788
2022-09-28T06:01:16.693Z,14.9575288093366
2022-09-28T06:04:17.252Z,14.992855876707472
2022-09-28T06:07:17.128Z,15.054517699987628
2022-09-28T06:11:16.450Z,15.128383480964203
2022-09-28T06:14:16.913Z,15.199680074424032
2022-09-28T06:17:17.096Z,15.274188286019854
2022-09-28T06:21:16.560Z,15.37117751519845
2022-09-28T06:24:17.015Z,15.430912654963686
2022-09-28T06:27:17.062Z,15.47587461406365
2022-09-28T06:31:16.448Z,15.621679977580879
2022-09-28T06:34:17.568Z,15.714815684851782
2022-09-28T06:37:16.653Z,15.791893583863565
2022-09-28T06:41:16.617Z,15.912006773689882
2022-09-28T06:44:16.959Z,15.965319096064558
2022-09-28T06:51:16.548Z,16.122044658920277
2022-09-28T07:01:16.743Z,16.43999284153988
2022-09-28T07:04:17.061Z,16.567814748165254
2022-09-28T07:11:16.145Z,16.830524659357707
2022-09-28T07:14:34.210Z,16.93329646975917
2022-09-28T07:17:16.391Z,17.051484195639297
2022-09-28T07:21:27.821Z,17.216561874811667
2022-09-28T07:24:17.478Z,17.355304436691586
2022-09-28T07:27:17.162Z,17.452938218531564
2022-09-28T07:31:17.297Z,17.576265251031508
2022-09-28T07:34:18.954Z,17.612877996076076
2022-09-28T07:37:19.211Z,17.716935352133532
2022-09-28T07:41:22.641Z,17.813284862301316
2022-09-28T07:44:19.212Z,17.91541545479013
2022-09-28T07:47:17.373Z,17.96487496542695
2022-09-28T07:51:18.016Z,18.038100783930076
2022-09-28T07:54:18.110Z,18.08242170278718
2022-09-28T08:11:17.197Z,18.450478865378773
2022-09-28T08:14:17.387Z,18.481310946774556
2022-09-28T08:21:48.329Z,18.665018982287528
2022-09-28T08:24:16.975Z,18.74466873565916
2022-09-28T08:27:16.893Z,18.798625059927964
2022-09-28T08:31:16.791Z,18.933516010980476
2022-09-28T08:34:17.679Z,19.0125236611555
2022-09-28T08:41:24.179Z,19.205867875750936
2022-09-28T08:44:18.559Z,19.282948740624942
2022-09-28T08:51:21.077Z,19.415271044687053
2022-09-28T08:54:30.047Z,19.48014758465615
2022-09-28T08:57:20.334Z,19.514834070601502
2022-09-28T09:01:18.970Z,19.623390010454113
2022-09-28T09:04:17.802Z,19.667069360174445
2022-09-28T09:07:32.068Z,19.697901854990143
2022-09-28T09:11:29.850Z,19.79232643553987
2022-09-28T09:14:35.397Z,19.88996283985325
2022-09-28T09:17:28.503Z,19.974752434100083
2022-09-28T09:21:33.732Z,20.08652065667011
2022-09-28T09:24:24.068Z,20.117353294021814
2022-09-28T09:27:38.325Z,20.19507728050821
2022-09-28T09:31:32.542Z,20.218201785206567
2022-09-28T09:34:36.953Z,20.2361875151576
2022-09-28T09:37:33.464Z,20.293356466178373
2022-09-28T09:41:29.980Z,20.37686174026785
2022-09-28T09:51:23.447Z,20.64086738161068
2022-09-28T09:54:23.202Z,20.751351722290657
2022-09-28T09:57:21.870Z,20.804666888300563
2022-09-28T10:01:20.551Z,20.99865727477627
2022-09-28T10:04:22.526Z,21.039767873514574
2022-09-28T10:07:23.460Z,21.12391618838965
2022-09-28T10:11:19.468Z,21.145113867801047
2022-09-28T10:14:19.282Z,21.20870693574843
2022-09-28T10:17:18.805Z,21.25238704864396
2022-09-28T10:21:20.325Z,21.32047667832967
2022-09-28T10:24:28.853Z,21.400771118613193
2022-09-28T10:27:20.403Z,21.442524255641274
2022-09-28T10:31:50.220Z,21.544016576530066
2022-09-28T10:34:24.171Z,21.585127422359893
2022-09-28T10:37:18.031Z,21.668633885295367
2022-09-28T10:41:17.935Z,21.69175876554227
2022-09-28T10:44:19.408Z,21.711029503583358
2022-09-28T10:47:21.467Z,21.764345233489074
2022-09-28T10:51:17.196Z,21.85363309228933
2022-09-28T10:54:19.588Z,21.92750440879172
2022-09-28T10:57:27.260Z,22.009726466577558
2022-09-28T11:01:21.782Z,22.295577169117404
2022-09-28T11:04:22.870Z,22.358528680783728
2022-09-28T11:07:18.980Z,22.400282258530204
2022-09-28T11:11:17.986Z,22.533251472604842
2022-09-28T11:14:25.605Z,22.706689870754143
2022-09-28T11:17:24.444Z,22.848652658186985
2022-09-28T11:21:18.124Z,23.038150842723645
2022-09-28T11:24:19.950Z,23.286104997127495
2022-09-28T11:27:22.761Z,23.404300998318014
2022-09-28T11:31:25.214Z,23.659322242731285
2022-09-28T11:34:31.063Z,23.713923861768215
2022-09-28T11:37:42.880Z,23.720347583814963
2022-09-28T11:41:30.342Z,23.775591612188965
2022-09-28T11:44:37.175Z,23.857815344609207
2022-09-28T11:47:36.685Z,24.002349429845708
2022-09-28T11:51:24.155Z,24.160373626486397
2022-09-28T11:54:24.296Z,24.31711334540887
2022-09-28T11:57:21.280Z,24.463575294666224
2022-09-28T12:01:22.511Z,24.518819775522935
2022-09-28T12:04:22.810Z,24.56314386006279
2022-09-28T12:07:22.034Z,24.633163110190072
2022-09-28T12:11:22.615Z,24.712175723382188
2022-09-28T12:14:22.297Z,24.773844152213222
2022-09-28T12:17:23.853Z,24.78861888617721
2022-09-28T12:21:31.412Z,24.6665668081856
2022-09-28T12:24:22.660Z,24.64151403353617
2022-09-28T12:27:24.057Z,24.73658613811649
2022-09-28T12:31:22.626Z,24.713460481888706
2022-09-28T12:34:16.970Z,24.698685760161972
2022-09-28T12:37:31.239Z,24.620957915912822
2022-09-28T12:41:39.678Z,24.521389287079
2022-09-28T12:44:31.713Z,24.517535019772186
2022-09-28T12:48:09.620Z,24.46807193719951
2022-09-28T12:51:31.209Z,24.48798564252538
2022-09-28T12:54:34.718Z,24.495051797078577
2022-09-28T12:57:36.073Z,24.505329841047296
2022-09-28T13:01:34.368Z,24.467429559681115
2022-09-28T13:05:01.201Z,24.43017167139478
2022-09-28T13:07:26.950Z,24.404476584937946
2022-09-28T13:11:24.761Z,24.432741180440644
2022-09-28T13:14:38.023Z,24.4134698643702
2022-09-28T13:17:23.969Z,24.37556962137105
2022-09-28T13:21:28.004Z,24.33445751127083
2022-09-28T13:24:32.096Z,24.253518098944276
2022-09-28T13:27:25.128Z,24.228465438331842
2022-09-28T13:31:21.762Z,24.17450588512038
2022-09-28T13:34:23.677Z,24.101917489153948
2022-09-28T13:37:22.317Z,24.078791994670702
2022-09-28T13:41:21.198Z,24.06530212561047
2022-09-28T13:44:31.981Z,24.06851399901434
2022-09-28T13:47:30.886Z,24.098063239664135
2022-09-28T13:51:30.283Z,24.09292424059904
2022-09-28T13:54:26.177Z,24.017766412525454
2022-09-28T13:57:24.191Z,23.94260864670223
2022-09-28T14:01:21.026Z,23.91884081918397
2022-09-28T14:04:18.220Z,23.875801796007817
2022-09-28T14:07:23.405Z,23.845610254619167
2022-09-28T14:22:10.709Z,23.77494923957274
2022-09-28T14:24:29.417Z,23.758889925645143
2022-09-28T14:27:37.264Z,23.790366183617152
2022-09-28T14:31:24.854Z,23.740261125049802
2022-09-28T14:34:30.886Z,23.702361163230034
2022-09-28T14:41:36.740Z,23.691440838185734
2022-09-28T14:44:16.662Z,23.6696001920398
2022-09-28T14:47:33.968Z,23.629773144954015
2022-09-28T14:51:56.375Z,23.699791674866084
2022-09-28T14:54:20.191Z,23.623349429319205
2022-09-28T14:57:19.857Z,23.59444271459006
2022-09-28T15:01:20.687Z,23.494232841490977
2022-09-28T15:04:18.197Z,23.504510772100275
2022-09-28T15:07:20.708Z,23.5070802549345
2022-09-28T15:11:21.194Z,23.40494336831034
2022-09-28T15:14:17.859Z,23.379248572164215
2022-09-28T15:17:22.370Z,23.306018443065476
2022-09-28T15:21:17.509Z,23.309872658913083
2022-09-28T15:24:24.989Z,23.26169497258461
2022-09-28T15:27:19.289Z,23.24692048723555
2022-09-28T15:31:19.708Z,23.180114148732173
2022-09-28T15:35:23.797Z,23.042647414621023
2022-09-28T15:37:20.523Z,23.050355824106372
2022-09-28T15:41:16.859Z,23.05677949917772
2022-09-28T15:44:28.060Z,23.012456150441814
2022-09-28T15:47:25.836Z,23.005390111339874
2022-09-28T15:51:17.070Z,22.978410694375633
2022-09-28T15:54:24.073Z,22.94500761781965
2022-09-28T15:57:32.769Z,22.880128600414263
2022-09-28T16:01:27.728Z,22.772211129662992
2022-09-28T16:04:35.826Z,22.798548119614132
2022-09-28T16:07:20.877Z,22.702835680527006
2022-09-28T16:11:21.287Z,22.707332235807918
2022-09-28T16:14:18.907Z,22.640526294571828
2022-09-28T16:17:23.043Z,22.616116443696956
2022-09-28T16:21:28.974Z,22.61483171488544
2022-09-28T16:24:21.462Z,22.526827834595405
2022-09-28T16:27:25.650Z,22.420195510068243
2022-09-28T16:31:28.310Z,22.365594669513303
2022-09-28T16:34:19.397Z,22.262174343927562
2022-09-28T16:37:30.002Z,22.23069861605909
2022-09-28T16:41:22.097Z,22.23391042452504
2022-09-28T16:44:23.197Z,22.177382612131716
2022-09-28T16:47:17.453Z,22.03220907347504
2022-09-28T16:51:17.561Z,21.988528585176482
2022-09-28T16:55:39.415Z,21.90052531231522
2022-09-28T16:57:16.965Z,21.876758019684438
2022-09-28T17:01:16.652Z,21.817018635966814
2022-09-28T17:04:17.096Z,21.737366185525026
2022-09-28T17:07:18.055Z,21.702036491988203
2022-09-28T17:11:23.620Z,21.684692829285996
2022-09-28T17:14:16.580Z,21.614675854305187
2022-09-28T17:17:17.302Z,21.596689851105566
2022-09-28T17:21:18.493Z,21.568426138995072
2022-09-28T17:24:17.527Z,21.479138560846696
2022-09-28T17:27:18.773Z,21.439954831269368
2022-09-28T17:31:16.607Z,21.368010978396434
2022-09-28T17:34:16.798Z,21.321761388814867
2022-09-28T17:37:16.577Z,21.27486946788995
2022-09-28T17:41:20.499Z,21.23761289045833
2022-09-28T17:44:16.764Z,21.236970535809178
2022-09-28T17:47:16.744Z,21.1630997814882
2022-09-28T17:51:16.276Z,21.159245656826535
2022-09-28T17:54:20.655Z,21.17016567712644
2022-09-28T17:57:16.721Z,21.078309076748337
2022-09-28T18:01:16.723Z,21.06931612786284
2022-09-28T18:04:39.772Z,21.066746714059263
2022-09-28T18:07:17.493Z,20.987094922237155
2022-09-28T18:11:17.681Z,20.99673021591743
2022-09-28T18:14:16.999Z,20.936991411593407
2022-09-28T18:17:17.098Z,20.933779649034204
2022-09-28T18:21:16.425Z,20.861193845514208
2022-09-28T18:24:17.106Z,20.7886081000609
2022-09-28T18:27:17.082Z,20.751351722290657
2022-09-28T18:31:19.299Z,20.652429690030203
2022-09-28T18:34:17.028Z,20.66591905171517
2022-09-28T18:37:17.777Z,20.687758974885583
2022-09-28T18:41:16.238Z,20.635728578341606
2022-09-28T18:44:16.225Z,20.556077164887483
2022-09-28T18:47:16.248Z,20.49248455434317
2022-09-28T18:51:16.258Z,20.42953433729708
2022-09-28T18:54:17.308Z,20.434030779923432
2022-09-28T18:57:17.669Z,20.4173297084345
2022-09-28T19:01:30.749Z,20.44430836390611
2022-09-28T19:04:17.532Z,20.398701593861915
2022-09-28T19:07:17.414Z,20.35887598243171
2022-09-28T19:11:16.356Z,20.31776569219401
2022-09-28T19:14:16.446Z,20.29464116212075
2022-09-28T19:17:16.482Z,20.279867159881633
2022-09-28T19:21:16.651Z,20.288217682590766
2022-09-28T19:24:17.998Z,20.25160385795325
2022-09-28T19:27:16.954Z,20.197004322341307
2022-09-28T19:31:17.317Z,20.16938339331109
2022-09-28T19:34:17.777Z,20.134696657136466
2022-09-28T19:37:16.974Z,20.113499213779868
2022-09-28T19:41:44.732Z,20.06725026364584
2022-09-28T19:44:26.395Z,20.134054310295323
2022-09-28T19:47:20.181Z,20.100652280822395
2022-09-28T19:51:17.302Z,20.087163003174737
2022-09-28T19:54:17.822Z,20.09808289444918
2022-09-28T19:57:19.031Z,20.08009719187394
2022-09-28T20:01:16.350Z,20.09037473576609
2022-09-28T20:04:16.725Z,20.085235963674496
2022-09-28T20:07:16.666Z,20.06789261001404
2022-09-28T20:11:16.178Z,20.036417643319872
2022-09-28T20:14:16.603Z,20.051191605918667
2022-09-28T20:17:16.607Z,20.028067143784664
2022-09-28T20:21:20.125Z,20.045410489832648
2022-09-28T20:24:17.457Z,20.00108861207709
2022-09-28T20:27:16.885Z,20.03770233562427
2022-09-28T20:31:18.718Z,20.038344681783293
2022-09-28T20:34:17.608Z,20.034490604897382
2022-09-28T20:37:17.764Z,20.03898702794686
2022-09-28T20:41:20.724Z,20.034490604897382
2022-09-28T20:44:17.813Z,19.976037125531366
2022-09-28T20:47:17.709Z,20.019074298990837
2022-09-28T20:51:18.725Z,19.97539477981345
2022-09-28T20:54:16.904Z,19.943919845206256
2022-09-28T20:57:17.892Z,19.956124410390565
2022-09-28T21:01:20.747Z,19.972183051292085
2022-09-28T21:04:17.014Z,19.949058609294298
2022-09-28T21:07:16.788Z,19.974110088391264
2022-09-28T21:11:18.769Z,19.989526386658053
2022-09-28T21:14:17.454Z,19.964474903304655
2022-09-28T21:17:17.269Z,19.976679471253828
2022-09-28T21:21:18.497Z,19.945846881705165
2022-09-28T21:24:16.673Z,19.99466515332906
2022-09-28T21:27:16.633Z,19.934927008752492
2022-09-28T21:31:15.895Z,19.916941338518882
2022-09-28T21:34:20.518Z,19.968328977216515
2022-09-28T21:37:16.222Z,19.945204536200983
2022-09-28T21:41:19.489Z,19.943919845206256
2022-09-28T21:44:20.104Z,19.905379123822787
2022-09-28T21:47:20.027Z,19.929788245464806
2022-09-28T21:51:16.779Z,19.956124410390565
2022-09-28T21:54:17.189Z,19.943919845206256
2022-09-28T21:57:19.096Z,19.917583683822976
2022-09-28T22:01:20.998Z,19.940065772331216
2022-09-28T22:04:16.987Z,19.91180257624983
2022-09-28T22:07:17.124Z,19.914371957347974
2022-09-28T22:11:17.699Z,19.917583683822976
2022-09-28T22:14:16.647Z,19.908590849979465
2022-09-28T22:17:16.568Z,19.868123108713554
2022-09-28T22:21:18.458Z,19.92336479176447
2022-09-28T22:24:16.711Z,19.882254698850737
2022-09-28T22:27:16.713Z,19.906663814271816
2022-09-28T22:31:19.252Z,19.868123108713554
2022-09-28T22:34:17.462Z,19.837932900794204
2022-09-28T22:37:17.405Z,19.827013040829115
2022-09-28T22:41:18.213Z,19.810312081071608
2022-09-28T22:44:16.522Z,19.810312081071608
2022-09-28T22:47:16.620Z,19.84564103803141
2022-09-28T22:51:16.544Z,19.850779796553343
2022-09-28T22:54:16.748Z,19.848852762073513
2022-09-28T22:57:16.651Z,19.86876545367204
2022-09-28T23:01:19.751Z,19.823801317560083
2022-09-28T23:04:17.580Z,19.80902739198682
2022-09-28T23:07:17.266Z,19.791041746709745
2022-09-28T23:11:16.557Z,19.80966973652694
2022-09-28T23:14:16.546Z,19.755070466851247
2022-09-28T23:17:16.461Z,19.81288145929575
2022-09-28T23:21:19.610Z,19.788472369104056
2022-09-28T23:24:16.713Z,19.787830024714005
2022-09-28T23:27:16.510Z,19.775625482167015
2022-09-28T23:31:18.711Z,19.812239114732893
2022-09-28T23:34:17.229Z,19.763420941261664
2022-09-28T23:37:17.084Z,19.776267826470665
2022-09-28T23:41:16.936Z,19.791041746709745
2022-09-28T23:44:17.283Z,19.796180502139396
2022-09-28T23:47:17.183Z,19.753143434404137
2022-09-28T23:51:16.466Z,19.78461830283195
2022-09-28T23:54:16.565Z,19.726164984441947
2022-09-28T23:57:16.419Z,19.730661392211914
